Time;durP1;ratioP1;P1;durP2;ratioP2;P2;SDS_P1;SDS_P2;PMS_P1;PMS_P2;Temp;Humidity;BMP_temperature;BMP_pressure;BME280_temperature;BME280_humidity;BME280_pressure;Samples;Min_cycle;Max_cycle;Signal;HPM_P1;HPM_P2
2021/01/16 00:02:02;;;;;;;15.82;12.65;;;;;;;;;;5104318;28;20075;-67
2021/01/16 00:04:27;;;;;;;19.67;12.95;;;;;;;;;;5104395;28;20609;-67
2021/01/16 00:06:53;;;;;;;18.23;12.45;;;;;;;;;;5107032;28;20019;-67
2021/01/16 00:09:19;;;;;;;16.92;13.10;;;;;;;;;;5106732;28;20110;-67
2021/01/16 00:11:46;;;;;;;19.73;12.98;;;;;;;;;;5107586;28;20035;-67
2021/01/16 00:14:11;;;;;;;17.50;12.45;;;;;;;;;;5106580;28;20043;-67
2021/01/16 00:16:37;;;;;;;20.23;13.43;;;;;;;;;;5108187;28;22024;-67
2021/01/16 00:19:02;;;;;;;15.25;12.00;;;;;;;;;;5107302;28;20046;-67
2021/01/16 00:21:27;;;;;;;15.68;11.57;;;;;;;;;;5106661;28;20066;-67
2021/01/16 00:23:53;;;;;;;17.85;13.65;;;;;;;;;;5107148;28;20096;-67
2021/01/16 00:26:18;;;;;;;18.63;13.75;;;;;;;;;;5108085;28;20031;-67
2021/01/16 00:28:43;;;;;;;21.27;14.32;;;;;;;;;;5105400;28;20520;-67
2021/01/16 00:31:09;;;;;;;18.90;13.10;;;;;;;;;;5107291;28;20031;-67
2021/01/16 00:33:35;;;;;;;17.60;12.65;;;;;;;;;;5107462;28;20282;-67
2021/01/16 00:36:05;;;;;;;16.25;12.52;;;;;;;;;;5105521;28;20148;-67
2021/01/16 00:38:38;;;;;;;23.83;13.15;;;;;;;;;;5107724;28;20105;-67
2021/01/16 00:41:03;;;;;;;16.38;12.88;;;;;;;;;;5108069;28;20043;-67
2021/01/16 00:43:28;;;;;;;17.30;12.73;;;;;;;;;;5103892;28;20334;-67
2021/01/16 00:45:54;;;;;;;17.10;12.88;;;;;;;;;;5107725;28;20517;-67
2021/01/16 00:48:21;;;;;;;16.88;12.68;;;;;;;;;;5105617;28;20056;-67
2021/01/16 00:50:52;;;;;;;17.58;13.23;;;;;;;;;;5106848;28;20031;-67
2021/01/16 00:53:18;;;;;;;24.27;12.80;;;;;;;;;;5108336;28;20492;-67
2021/01/16 00:55:43;;;;;;;17.20;11.75;;;;;;;;;;5107603;28;20121;-67
2021/01/16 00:58:18;;;;;;;25.42;12.02;;;;;;;;;;5107778;28;20071;-67
2021/01/16 01:00:45;;;;;;;17.25;12.68;;;;;;;;;;5107234;28;20119;-67
2021/01/16 01:03:18;;;;;;;18.50;13.02;;;;;;;;;;5107708;28;20038;-67
2021/01/16 01:05:44;;;;;;;15.85;13.00;;;;;;;;;;5107562;28;20039;-67
2021/01/16 01:08:09;;;;;;;16.17;12.40;;;;;;;;;;5107783;28;20024;-67
2021/01/16 01:10:41;;;;;;;15.80;11.82;;;;;;;;;;5106466;28;20035;-67
2021/01/16 01:13:06;;;;;;;18.95;12.93;;;;;;;;;;5107245;28;20039;-67
2021/01/16 01:15:32;;;;;;;17.25;12.05;;;;;;;;;;5107271;28;20036;-67
2021/01/16 01:17:59;;;;;;;16.73;11.98;;;;;;;;;;5106492;28;20544;-67
2021/01/16 01:20:25;;;;;;;18.88;12.70;;;;;;;;;;5107316;28;20116;-67
2021/01/16 01:22:51;;;;;;;17.00;12.80;;;;;;;;;;5107111;28;20069;-67
2021/01/16 01:25:17;;;;;;;17.58;11.80;;;;;;;;;;5107397;28;20653;-67
2021/01/16 01:27:43;;;;;;;16.38;11.95;;;;;;;;;;5105940;28;20042;-67
2021/01/16 01:30:09;;;;;;;16.38;12.43;;;;;;;;;;5107445;28;20046;-67
2021/01/16 01:32:34;;;;;;;17.58;12.25;;;;;;;;;;5106850;28;20050;-67
2021/01/16 01:35:01;;;;;;;15.02;12.25;;;;;;;;;;5107262;28;20028;-67
2021/01/16 01:37:26;;;;;;;16.40;12.85;;;;;;;;;;5105885;28;20145;-67
2021/01/16 01:39:51;;;;;;;16.48;12.70;;;;;;;;;;5107060;28;20186;-67
2021/01/16 01:42:19;;;;;;;16.10;11.60;;;;;;;;;;5107809;28;20376;-67
2021/01/16 01:44:45;;;;;;;15.98;11.90;;;;;;;;;;5103553;28;20092;-67
2021/01/16 01:47:13;;;;;;;14.55;11.10;;;;;;;;;;5107430;28;20488;-67
2021/01/16 01:49:40;;;;;;;17.23;12.23;;;;;;;;;;5107384;28;20646;-67
2021/01/16 01:52:06;;;;;;;15.30;11.05;;;;;;;;;;5103233;28;20024;-67
2021/01/16 01:54:34;;;;;;;14.18;11.18;;;;;;;;;;5106986;28;20039;-67
2021/01/16 01:57:02;;;;;;;15.45;11.77;;;;;;;;;;5106935;28;20069;-67
2021/01/16 01:59:33;;;;;;;15.43;10.63;;;;;;;;;;5107410;28;20142;-68
2021/01/16 02:01:59;;;;;;;;;;;;;;;;;;5106699;28;20046;-67
2021/01/16 02:04:27;;;;;;;17.60;11.10;;;;;;;;;;5106760;28;19912;-68
2021/01/16 02:06:53;;;;;;;14.50;10.70;;;;;;;;;;5107035;28;20023;-68
2021/01/16 02:09:18;;;;;;;12.65;10.57;;;;;;;;;;5107011;28;20026;-67
2021/01/16 02:11:44;;;;;;;15.15;10.95;;;;;;;;;;5105877;28;20023;-67
2021/01/16 02:14:09;;;;;;;14.55;9.88;;;;;;;;;;5105990;28;20452;-67
2021/01/16 02:16:48;;;;;;;14.93;10.73;;;;;;;;;;5106381;28;20028;-67
2021/01/16 02:19:15;;;;;;;13.70;10.52;;;;;;;;;;5105954;28;20043;-68
2021/01/16 02:21:46;;;;;;;17.38;10.57;;;;;;;;;;5107870;28;20035;-67
2021/01/16 02:24:17;;;;;;;14.32;10.38;;;;;;;;;;5110613;28;20061;-67
2021/01/16 02:27:03;;;;;;;14.40;10.43;;;;;;;;;;5109153;28;20080;-67
2021/01/16 02:29:29;;;;;;;15.05;9.43;;;;;;;;;;5110205;28;20040;-68
2021/01/16 02:31:58;;;;;;;14.15;10.23;;;;;;;;;;5110381;28;20024;-67
2021/01/16 02:34:31;;;;;;;13.10;9.60;;;;;;;;;;5106710;28;20035;-67
2021/01/16 02:37:22;;;;;;;14.57;10.13;;;;;;;;;;5107096;28;20035;-67
2021/01/16 02:39:59;;;;;;;16.02;9.93;;;;;;;;;;5109987;28;20028;-67
2021/01/16 02:42:40;;;;;;;19.48;10.30;;;;;;;;;;5109886;28;20031;-67
2021/01/16 02:45:07;;;;;;;;;;;;;;;;;;5108883;28;20036;-68
2021/01/16 02:48:11;;;;;;;13.38;10.40;;;;;;;;;;5109800;28;20001;-68
2021/01/16 02:50:41;;;;;;;13.13;8.80;;;;;;;;;;5099108;28;20065;-68
2021/01/16 02:53:07;;;;;;;14.67;9.80;;;;;;;;;;5110086;28;20049;-68
2021/01/16 02:55:33;;;;;;;14.18;9.55;;;;;;;;;;5107799;28;20043;-68
2021/01/16 02:57:58;;;;;;;13.57;9.90;;;;;;;;;;5109322;28;20551;-67
2021/01/16 03:00:24;;;;;;;13.65;9.52;;;;;;;;;;5108925;28;20031;-67
2021/01/16 03:02:49;;;;;;;10.60;8.05;;;;;;;;;;5109304;28;20123;-67
2021/01/16 03:05:17;;;;;;;13.77;9.00;;;;;;;;;;5108223;28;20030;-67
2021/01/16 03:07:43;;;;;;;11.35;8.80;;;;;;;;;;5109959;28;20050;-69
2021/01/16 03:10:10;;;;;;;15.82;9.48;;;;;;;;;;5109920;28;20042;-67
2021/01/16 03:12:37;;;;;;;10.40;7.47;;;;;;;;;;5108478;28;20048;-67
2021/01/16 03:15:07;;;;;;;9.43;7.35;;;;;;;;;;5109336;28;20123;-68
2021/01/16 03:17:44;;;;;;;11.68;7.10;;;;;;;;;;5108942;28;20059;-68
2021/01/16 03:20:31;;;;;;;8.30;6.45;;;;;;;;;;5108008;28;20041;-68
2021/01/16 03:22:58;;;;;;;11.60;7.18;;;;;;;;;;5108510;28;20043;-67
2021/01/16 03:25:26;;;;;;;10.07;6.82;;;;;;;;;;5109124;28;20126;-67
2021/01/16 03:27:54;;;;;;;9.57;7.00;;;;;;;;;;5108038;28;20322;-68
2021/01/16 03:30:20;;;;;;;11.18;6.97;;;;;;;;;;5108678;28;20050;-68
2021/01/16 03:32:47;;;;;;;9.68;6.80;;;;;;;;;;5108815;28;20360;-68
2021/01/16 03:35:17;;;;;;;9.10;6.65;;;;;;;;;;5108414;28;20464;-68
2021/01/16 03:37:46;;;;;;;8.93;6.82;;;;;;;;;;5107722;28;20031;-67
2021/01/16 03:40:13;;;;;;;11.82;7.40;;;;;;;;;;5108961;28;20040;-67
2021/01/16 03:42:39;;;;;;;9.77;7.10;;;;;;;;;;5105897;28;20042;-67
2021/01/16 03:45:08;;;;;;;10.38;7.88;;;;;;;;;;5103716;28;20046;-68
2021/01/16 03:47:34;;;;;;;17.17;7.50;;;;;;;;;;5108146;28;20031;-68
2021/01/16 03:49:59;;;;;;;9.65;7.18;;;;;;;;;;5108718;28;20941;-67
2021/01/16 03:52:33;;;;;;;11.82;7.85;;;;;;;;;;5108393;28;20031;-67
2021/01/16 03:54:59;;;;;;;11.15;7.57;;;;;;;;;;5107457;28;20043;-68
2021/01/16 03:57:25;;;;;;;10.77;8.07;;;;;;;;;;5108379;28;20058;-69
2021/01/16 03:59:51;;;;;;;9.70;7.13;;;;;;;;;;5108526;28;20353;-69
2021/01/16 04:02:17;;;;;;;8.88;7.38;;;;;;;;;;5107844;28;20039;-69
2021/01/16 04:04:44;;;;;;;9.15;7.05;;;;;;;;;;5107981;28;20035;-69
2021/01/16 04:07:09;;;;;;;10.43;7.65;;;;;;;;;;5108536;28;20036;-68
2021/01/16 04:09:35;;;;;;;12.38;8.85;;;;;;;;;;5108433;28;20054;-68
2021/01/16 04:12:00;;;;;;;10.55;8.00;;;;;;;;;;5107575;28;20032;-68
2021/01/16 04:14:26;;;;;;;11.10;7.57;;;;;;;;;;5108368;28;20050;-68
2021/01/16 04:16:52;;;;;;;11.57;7.72;;;;;;;;;;5108355;28;20458;-68
2021/01/16 04:19:17;;;;;;;9.80;7.57;;;;;;;;;;5106871;28;20043;-68
2021/01/16 04:21:42;;;;;;;11.25;7.22;;;;;;;;;;5107920;28;20028;-69
2021/01/16 04:24:08;;;;;;;12.63;7.72;;;;;;;;;;5108201;28;20380;-68
2021/01/16 04:26:33;;;;;;;9.27;7.10;;;;;;;;;;5104576;28;20042;-68
2021/01/16 04:28:58;;;;;;;10.20;7.35;;;;;;;;;;5106870;28;20039;-68
2021/01/16 04:31:24;;;;;;;11.07;7.78;;;;;;;;;;5106819;28;20031;-68
2021/01/16 04:33:49;;;;;;;9.82;7.28;;;;;;;;;;5107626;28;20497;-68
2021/01/16 04:36:14;;;;;;;11.13;7.95;;;;;;;;;;5108148;28;20028;-68
2021/01/16 04:38:40;;;;;;;11.07;7.13;;;;;;;;;;5106753;28;20032;-69
2021/01/16 04:41:05;;;;;;;10.10;7.22;;;;;;;;;;5108093;28;20027;-69
2021/01/16 04:43:31;;;;;;;12.05;7.43;;;;;;;;;;5107424;28;20116;-69
2021/01/16 04:46:04;;;;;;;11.63;7.95;;;;;;;;;;5108129;28;20420;-68
2021/01/16 04:48:32;;;;;;;10.60;8.00;;;;;;;;;;5105159;28;20069;-69
2021/01/16 04:50:59;;;;;;;9.75;7.32;;;;;;;;;;5107758;28;20049;-69
2021/01/16 04:53:35;;;;;;;11.13;8.02;;;;;;;;;;5107947;28;20046;-69
2021/01/16 04:56:01;;;;;;;11.30;8.35;;;;;;;;;;5106285;28;20051;-68
2021/01/16 04:58:27;;;;;;;10.45;8.15;;;;;;;;;;5107786;28;20087;-69
2021/01/16 05:00:55;;;;;;;11.32;7.95;;;;;;;;;;5106602;28;20117;-68
2021/01/16 05:03:23;;;;;;;10.05;7.97;;;;;;;;;;5107640;28;20032;-69
2021/01/16 05:05:52;;;;;;;12.25;8.23;;;;;;;;;;5106694;28;20062;-69
2021/01/16 05:08:19;;;;;;;11.77;8.73;;;;;;;;;;5107897;28;20523;-69
2021/01/16 05:10:48;;;;;;;11.68;8.07;;;;;;;;;;5107084;28;20101;-69
2021/01/16 05:13:15;;;;;;;10.25;8.23;;;;;;;;;;5107982;28;20474;-68
2021/01/16 05:15:43;;;;;;;11.95;8.68;;;;;;;;;;5106562;28;20035;-69
2021/01/16 05:18:17;;;;;;;12.40;8.60;;;;;;;;;;5107572;28;20129;-69
2021/01/16 05:20:44;;;;;;;11.43;8.65;;;;;;;;;;5107458;28;20535;-69
2021/01/16 05:23:16;;;;;;;11.70;8.07;;;;;;;;;;5107230;28;20333;-68
2021/01/16 05:25:49;;;;;;;14.52;9.30;;;;;;;;;;5107270;28;20054;-68
2021/01/16 05:28:19;;;;;;;13.32;9.23;;;;;;;;;;5107910;28;20066;-68
2021/01/16 05:30:49;;;;;;;14.32;10.05;;;;;;;;;;5100370;28;20035;-68
2021/01/16 05:33:16;;;;;;;12.68;9.35;;;;;;;;;;5105312;28;20077;-68
2021/01/16 05:35:42;;;;;;;13.73;8.52;;;;;;;;;;5107168;28;20096;-68
2021/01/16 05:38:07;;;;;;;12.35;8.90;;;;;;;;;;5107673;28;20397;-68
2021/01/16 05:40:35;;;;;;;12.75;9.77;;;;;;;;;;5106542;28;20024;-68
2021/01/16 05:43:00;;;;;;;12.30;8.75;;;;;;;;;;5107234;28;20063;-68
2021/01/16 05:45:27;;;;;;;12.57;8.38;;;;;;;;;;5102900;28;20058;-68
2021/01/16 05:47:52;;;;;;;11.30;8.65;;;;;;;;;;5106282;28;20461;-69
2021/01/16 05:50:22;;;;;;;10.98;8.15;;;;;;;;;;5107641;28;20043;-68
2021/01/16 05:52:48;;;;;;;12.07;8.73;;;;;;;;;;5107446;28;20064;-68
2021/01/16 05:55:16;;;;;;;15.15;8.90;;;;;;;;;;5106948;28;20153;-68
2021/01/16 05:57:46;;;;;;;12.63;9.07;;;;;;;;;;5108179;28;20062;-68
2021/01/16 06:00:22;;;;;;;14.63;9.15;;;;;;;;;;5111497;28;20051;-68
2021/01/16 06:02:48;;;;;;;11.55;8.65;;;;;;;;;;5111511;28;20047;-68
2021/01/16 06:05:14;;;;;;;11.27;9.00;;;;;;;;;;5111303;28;20530;-68
2021/01/16 06:07:39;;;;;;;13.18;9.60;;;;;;;;;;5109452;28;20081;-68
2021/01/16 06:10:12;;;;;;;12.93;8.55;;;;;;;;;;5111337;28;20038;-68
2021/01/16 06:12:38;;;;;;;13.30;9.23;;;;;;;;;;5110822;28;20061;-68
2021/01/16 06:15:13;;;;;;;13.68;8.93;;;;;;;;;;5111275;28;20028;-68
2021/01/16 06:17:40;;;;;;;13.65;9.60;;;;;;;;;;5108832;28;20039;-68
2021/01/16 06:20:07;;;;;;;13.32;9.23;;;;;;;;;;5109023;28;20031;-68
2021/01/16 06:22:33;;;;;;;10.80;8.35;;;;;;;;;;5110221;28;20219;-68
2021/01/16 06:25:01;;;;;;;10.85;8.90;;;;;;;;;;5110487;27;20469;-68
2021/01/16 06:27:27;;;;;;;11.63;8.43;;;;;;;;;;5109997;28;20398;-69
2021/01/16 06:29:58;;;;;;;13.43;9.73;;;;;;;;;;5107959;28;20093;-69
2021/01/16 06:32:24;;;;;;;12.80;8.93;;;;;;;;;;5110524;28;20231;-68
2021/01/16 06:35:05;;;;;;;12.73;8.48;;;;;;;;;;5109102;28;20054;-68
2021/01/16 06:37:31;;;;;;;11.85;8.43;;;;;;;;;;5108986;28;20063;-68
2021/01/16 06:39:57;;;;;;;12.77;8.88;;;;;;;;;;5110422;28;20050;-69
2021/01/16 06:42:24;;;;;;;12.23;9.23;;;;;;;;;;5106073;28;20028;-68
2021/01/16 06:45:02;;;;;;;12.82;9.60;;;;;;;;;;5110488;28;20073;-68
2021/01/16 06:47:28;;;;;;;12.98;9.98;;;;;;;;;;5108068;28;20127;-68
2021/01/16 06:49:58;;;;;;;11.40;9.05;;;;;;;;;;5109850;28;20651;-68
2021/01/16 06:52:32;;;;;;;13.07;9.00;;;;;;;;;;5110224;28;20114;-68
2021/01/16 06:54:57;;;;;;;12.57;9.55;;;;;;;;;;5109161;28;20215;-68
2021/01/16 06:57:22;;;;;;;11.27;8.65;;;;;;;;;;5108704;28;20158;-68
2021/01/16 06:59:48;;;;;;;15.02;9.60;;;;;;;;;;5110150;28;20027;-68
2021/01/16 07:02:30;;;;;;;13.75;8.93;;;;;;;;;;5108462;28;20448;-68
2021/01/16 07:04:58;;;;;;;;;;;;;;;;;;5109863;28;20031;-68
2021/01/16 07:07:41;;;;;;;12.00;8.95;;;;;;;;;;5108657;28;20455;-68
2021/01/16 07:10:13;;;;;;;14.63;9.38;;;;;;;;;;5109753;28;20032;-68
2021/01/16 07:12:42;;;;;;;13.75;9.02;;;;;;;;;;5109258;28;20170;-68
2021/01/16 07:15:08;;;;;;;13.00;8.82;;;;;;;;;;5109050;28;20046;-68
2021/01/16 07:17:36;;;;;;;11.38;9.10;;;;;;;;;;5108722;28;20057;-68
2021/01/16 07:20:01;;;;;;;13.18;9.10;;;;;;;;;;5108674;28;20043;-68
2021/01/16 07:22:37;;;;;;;14.32;9.63;;;;;;;;;;5109743;28;20023;-68
2021/01/16 07:25:05;;;;;;;11.25;8.40;;;;;;;;;;5109496;28;20526;-68
2021/01/16 07:27:32;;;;;;;12.23;9.10;;;;;;;;;;5108061;28;20074;-68
2021/01/16 07:29:59;;;;;;;14.35;8.93;;;;;;;;;;5109618;28;20071;-68
2021/01/16 07:32:42;;;;;;;14.18;9.00;;;;;;;;;;5109024;28;20035;-68
2021/01/16 07:35:28;;;;;;;14.85;9.40;;;;;;;;;;5109049;28;20110;-68
2021/01/16 07:37:54;;;;;;;11.32;8.60;;;;;;;;;;5107837;28;20046;-69
2021/01/16 07:40:26;;;;;;;12.18;9.45;;;;;;;;;;5106668;28;20038;-68
2021/01/16 07:42:53;;;;;;;13.82;9.80;;;;;;;;;;5109008;28;20038;-69
2021/01/16 07:45:25;;;;;;;13.82;9.43;;;;;;;;;;5109529;28;20102;-68
2021/01/16 07:47:53;;;;;;;11.00;8.65;;;;;;;;;;5107241;28;20028;-68
2021/01/16 07:50:21;;;;;;;14.80;9.88;;;;;;;;;;5107521;28;20126;-69
2021/01/16 07:53:24;;;;;;;12.02;9.55;;;;;;;;;;5107912;28;20020;-69
2021/01/16 07:56:00;;;;;;;12.70;9.25;;;;;;;;;;5106173;28;20035;-69
2021/01/16 07:58:32;;;;;;;16.67;10.75;;;;;;;;;;5107001;28;20032;-68
2021/01/16 08:01:00;;;;;;;;;;;;;;;;;;5108105;28;20044;-69
2021/01/16 08:04:03;;;;;;;16.48;10.70;;;;;;;;;;5106670;28;19911;-68
2021/01/16 08:06:31;;;;;;;14.40;10.15;;;;;;;;;;5106880;28;20051;-68
2021/01/16 08:09:22;;;;;;;13.93;10.00;;;;;;;;;;5107395;28;20027;-70
2021/01/16 08:11:51;;;;;;;12.32;9.32;;;;;;;;;;5107387;28;20051;-68
2021/01/16 08:14:23;;;;;;;15.45;10.10;;;;;;;;;;5108007;28;20087;-69
2021/01/16 08:16:57;;;;;;;20.60;10.32;;;;;;;;;;5108426;28;20084;-69
2021/01/16 08:19:38;;;;;;;17.02;10.07;;;;;;;;;;5102962;28;20077;-67
2021/01/16 08:22:15;;;;;;;16.15;10.45;;;;;;;;;;5106893;28;20043;-69
2021/01/16 08:25:03;;;;;;;15.32;10.20;;;;;;;;;;5108048;28;20066;-67
2021/01/16 08:27:30;;;;;;;12.50;9.35;;;;;;;;;;5105105;28;20078;-67
2021/01/16 08:29:56;;;;;;;29.10;19.15;;;;;;;;;;5108810;28;20031;-68
2021/01/16 08:32:21;;;;;;;17.58;11.20;;;;;;;;;;5107493;28;20039;-68
2021/01/16 08:34:59;;;;;;;14.02;9.82;;;;;;;;;;5106962;28;20023;-67
2021/01/16 08:37:47;;;;;;;12.77;10.13;;;;;;;;;;5108277;28;20038;-69
2021/01/16 08:40:12;;;;;;;13.70;9.55;;;;;;;;;;5106083;28;20035;-69
2021/01/16 08:42:53;;;;;;;13.32;9.38;;;;;;;;;;5107711;28;20054;-68
2021/01/16 08:45:19;;;;;;;13.68;9.35;;;;;;;;;;5108438;28;20460;-68
2021/01/16 08:47:56;;;;;;;13.35;9.27;;;;;;;;;;5107743;28;20031;-68
2021/01/16 08:50:26;;;;;;;13.82;8.93;;;;;;;;;;5106635;28;20031;-68
2021/01/16 08:52:52;;;;;;;14.57;9.47;;;;;;;;;;5108328;28;20100;-68
2021/01/16 08:55:25;;;;;;;16.15;8.32;;;;;;;;;;5104785;28;20035;-68
2021/01/16 08:58:04;;;;;;;11.18;8.57;;;;;;;;;;5106130;28;20032;-67
2021/01/16 09:00:32;;;;;;;12.23;8.88;;;;;;;;;;5106278;28;20089;-66
2021/01/16 09:03:24;;;;;;;12.15;8.25;;;;;;;;;;5108004;28;20036;-68
2021/01/16 09:06:10;;;;;;;10.75;7.30;;;;;;;;;;5106179;28;20697;-68
2021/01/16 09:08:35;;;;;;;12.43;8.00;;;;;;;;;;5105171;28;20036;-67
2021/01/16 09:11:12;;;;;;;11.00;8.10;;;;;;;;;;5106233;28;20031;-68
2021/01/16 09:13:42;;;;;;;11.40;6.95;;;;;;;;;;5107046;28;20524;-68
2021/01/16 09:16:28;;;;;;;10.23;7.45;;;;;;;;;;5106336;28;20050;-68
2021/01/16 09:18:55;;;;;;;10.73;8.02;;;;;;;;;;5107382;28;20130;-68
2021/01/16 09:21:23;;;;;;;12.73;7.40;;;;;;;;;;5107479;28;20046;-68
2021/01/16 09:23:48;;;;;;;12.73;6.97;;;;;;;;;;5107350;28;20077;-68
2021/01/16 09:26:18;;;;;;;10.98;6.90;;;;;;;;;;5107074;28;20116;-68
2021/01/16 09:28:51;;;;;;;11.15;7.43;;;;;;;;;;5106953;28;20157;-68
2021/01/16 09:31:25;;;;;;;13.32;7.18;;;;;;;;;;5111207;28;20031;-68
2021/01/16 09:33:59;;;;;;;8.38;6.43;;;;;;;;;;5111198;28;20043;-68
2021/01/16 09:36:38;;;;;;;8.88;6.15;;;;;;;;;;5111108;28;20031;-68
2021/01/16 09:39:06;;;;;;;9.38;7.38;;;;;;;;;;5111482;28;20032;-68
2021/01/16 09:41:33;;;;;;;11.25;7.78;;;;;;;;;;5110299;28;20032;-68
2021/01/16 09:43:58;;;;;;;12.95;8.57;;;;;;;;;;5111625;28;20032;-68
2021/01/16 09:46:37;;;;;;;11.95;8.40;;;;;;;;;;5107938;28;20039;-68
2021/01/16 09:49:04;;;;;;;11.02;9.05;;;;;;;;;;5110797;28;20065;-67
2021/01/16 09:51:31;;;;;;;11.50;8.43;;;;;;;;;;5110543;28;20039;-69
2021/01/16 09:54:14;;;;;;;10.77;7.13;;;;;;;;;;5111445;28;20050;-67
2021/01/16 09:56:47;;;;;;;9.90;6.82;;;;;;;;;;5110956;28;20095;-68
2021/01/16 09:59:21;;;;;;;8.95;6.45;;;;;;;;;;5108081;28;20067;-69
2021/01/16 10:02:07;;;;;;;11.35;7.63;;;;;;;;;;5101573;28;20131;-68
2021/01/16 10:04:41;;;;;;;9.93;6.65;;;;;;;;;;5103455;28;20518;-69
2021/01/16 10:07:13;;;;;;;11.73;6.18;;;;;;;;;;5107635;28;20104;-69
2021/01/16 10:09:49;;;;;;;11.60;7.20;;;;;;;;;;5107107;28;20031;-69
2021/01/16 10:12:33;;;;;;;12.48;7.60;;;;;;;;;;5108709;28;20049;-68
2021/01/16 10:15:03;;;;;;;9.52;6.68;;;;;;;;;;5108577;28;20126;-69
2021/01/16 10:17:32;;;;;;;10.15;7.45;;;;;;;;;;5107236;28;20057;-69
2021/01/16 10:20:07;;;;;;;10.23;6.70;;;;;;;;;;5107987;28;20051;-69
2021/01/16 10:22:34;;;;;;;8.65;6.07;;;;;;;;;;5108348;28;20046;-69
2021/01/16 10:25:01;;;;;;;12.27;6.82;;;;;;;;;;5107074;28;20055;-69
2021/01/16 10:27:41;;;;;;;10.32;6.88;;;;;;;;;;5106360;28;20035;-69
2021/01/16 10:30:15;;;;;;;15.10;7.43;;;;;;;;;;5106918;28;20043;-68
2021/01/16 10:32:41;;;;;;;8.43;6.03;;;;;;;;;;5101209;27;20754;-68
2021/01/16 10:35:07;;;;;;;10.68;7.10;;;;;;;;;;5108559;28;20027;-68
2021/01/16 10:37:41;;;;;;;12.32;7.65;;;;;;;;;;5107041;28;20394;-69
2021/01/16 10:40:08;;;;;;;9.18;6.50;;;;;;;;;;5104914;28;20158;-68
2021/01/16 10:42:46;;;;;;;11.45;6.70;;;;;;;;;;5102907;28;20043;-68
2021/01/16 10:45:14;;;;;;;11.50;7.75;;;;;;;;;;5106190;28;20112;-68
2021/01/16 10:47:42;;;;;;;12.43;7.70;;;;;;;;;;5106508;28;20024;-68
2021/01/16 10:50:13;;;;;;;12.95;7.70;;;;;;;;;;5107226;28;20035;-68
2021/01/16 10:52:40;;;;;;;11.90;7.65;;;;;;;;;;5107469;28;20044;-68
2021/01/16 10:55:08;;;;;;;11.95;7.82;;;;;;;;;;5106049;28;20100;-68
2021/01/16 10:57:45;;;;;;;9.73;7.43;;;;;;;;;;5107170;28;20035;-67
2021/01/16 11:00:13;;;;;;;11.23;7.40;;;;;;;;;;5106161;28;20035;-67
2021/01/16 11:02:44;;;;;;;11.18;7.85;;;;;;;;;;5105803;28;20035;-68
2021/01/16 11:05:15;;;;;;;9.35;7.13;;;;;;;;;;5106637;28;20036;-68
2021/01/16 11:07:42;;;;;;;9.07;6.90;;;;;;;;;;5106851;28;20028;-67
2021/01/16 11:10:11;;;;;;;9.75;7.38;;;;;;;;;;5106289;28;20081;-68
2021/01/16 11:12:38;;;;;;;12.80;8.13;;;;;;;;;;5104452;28;20031;-68
2021/01/16 11:15:18;;;;;;;11.63;8.05;;;;;;;;;;5106922;28;20112;-67
2021/01/16 11:17:47;;;;;;;8.30;6.65;;;;;;;;;;5106225;28;20104;-66
2021/01/16 11:20:48;;;;;;;13.50;8.75;;;;;;;;;;5106557;28;20085;-67
2021/01/16 11:23:25;;;;;;;9.17;5.93;;;;;;;;;;5106782;28;20042;-67
2021/01/16 11:25:51;;;;;;;10.57;7.22;;;;;;;;;;5106864;28;20931;-69
2021/01/16 11:28:21;;;;;;;10.65;7.15;;;;;;;;;;5104973;28;20024;-68
2021/01/16 11:30:48;;;;;;;12.45;7.35;;;;;;;;;;5105088;28;20500;-69
2021/01/16 11:33:25;;;;;;;10.55;7.32;;;;;;;;;;5107021;28;20100;-67
2021/01/16 11:36:03;;;;;;;13.57;8.80;;;;;;;;;;5106431;28;20015;-69
2021/01/16 11:38:45;;;;;;;13.63;8.85;;;;;;;;;;5105326;28;20686;-67
2021/01/16 11:41:13;;;;;;;12.50;8.43;;;;;;;;;;5106603;28;20517;-68
2021/01/16 11:43:39;;;;;;;10.65;8.23;;;;;;;;;;5107614;28;20031;-69
2021/01/16 11:46:14;;;;;;;12.60;9.05;;;;;;;;;;5106691;28;20441;-69
2021/01/16 11:48:41;;;;;;;13.35;7.97;;;;;;;;;;5108024;28;20040;-70
2021/01/16 11:51:27;;;;;;;13.00;8.15;;;;;;;;;;5108618;28;20103;-68
2021/01/16 11:53:54;;;;;;;12.60;8.52;;;;;;;;;;5101040;28;20539;-70
2021/01/16 11:56:24;;;;;;;10.95;8.52;;;;;;;;;;5104872;28;20500;-70
2021/01/16 11:58:51;;;;;;;11.25;8.40;;;;;;;;;;5106885;28;20059;-73
2021/01/16 12:01:17;;;;;;;13.63;8.68;;;;;;;;;;5105875;28;20456;-72
2021/01/16 12:03:43;;;;;;;12.18;9.02;;;;;;;;;;5106764;28;20027;-70
2021/01/16 12:06:10;;;;;;;12.95;8.88;;;;;;;;;;5105023;28;20036;-70
2021/01/16 12:08:37;;;;;;;12.98;9.18;;;;;;;;;;5108849;28;20422;-69
2021/01/16 12:11:07;;;;;;;12.15;8.80;;;;;;;;;;5107363;28;20054;-70
2021/01/16 12:13:33;;;;;;;12.20;8.95;;;;;;;;;;5107836;28;20031;-70
2021/01/16 12:15:58;;;;;;;11.77;8.65;;;;;;;;;;5106253;28;20085;-70
2021/01/16 12:18:24;;;;;;;11.40;8.75;;;;;;;;;;5107375;28;20146;-70
2021/01/16 12:20:50;;;;;;;11.40;8.60;;;;;;;;;;5105130;28;20039;-70
2021/01/16 12:23:19;;;;;;;11.00;8.68;;;;;;;;;;5107733;28;20052;-70
2021/01/16 12:25:50;;;;;;;11.63;9.32;;;;;;;;;;5108508;28;21011;-69
2021/01/16 12:28:23;;;;;;;13.35;9.88;;;;;;;;;;5107064;28;20027;-69
2021/01/16 12:30:49;;;;;;;12.20;9.15;;;;;;;;;;5107830;28;20137;-70
2021/01/16 12:33:21;;;;;;;14.50;9.95;;;;;;;;;;5107086;28;20032;-70
2021/01/16 12:35:47;;;;;;;13.55;8.65;;;;;;;;;;5107894;28;20039;-70
2021/01/16 12:38:12;;;;;;;12.93;8.38;;;;;;;;;;5108426;28;20085;-70
2021/01/16 12:40:38;;;;;;;13.82;9.40;;;;;;;;;;5107547;28;20429;-70
2021/01/16 12:43:10;;;;;;;12.65;9.90;;;;;;;;;;5107903;28;20057;-70
2021/01/16 12:45:35;;;;;;;13.13;8.75;;;;;;;;;;5106594;28;20027;-69
2021/01/16 12:48:01;;;;;;;12.70;8.75;;;;;;;;;;5107249;28;20420;-68
2021/01/16 12:50:26;;;;;;;18.27;10.52;;;;;;;;;;5103613;28;20065;-68
2021/01/16 12:52:54;;;;;;;15.10;11.40;;;;;;;;;;5105340;28;20785;-68
2021/01/16 12:55:23;;;;;;;14.52;9.82;;;;;;;;;;5106911;28;20043;-67
2021/01/16 12:57:53;;;;;;;13.63;9.35;;;;;;;;;;5103250;28;20082;-69
2021/01/16 13:00:25;;;;;;;14.55;9.90;;;;;;;;;;5101335;28;20039;-68
2021/01/16 13:02:59;;;;;;;13.52;10.23;;;;;;;;;;5106640;28;20027;-71
2021/01/16 13:05:27;;;;;;;15.02;10.07;;;;;;;;;;5107149;28;20042;-71
2021/01/16 13:08:00;;;;;;;15.38;10.43;;;;;;;;;;5107190;28;20055;-71
2021/01/16 13:10:28;;;;;;;14.10;9.98;;;;;;;;;;5106904;28;20027;-71
2021/01/16 13:12:53;;;;;;;13.40;9.40;;;;;;;;;;5106869;28;20150;-70
2021/01/16 13:15:19;;;;;;;14.18;9.82;;;;;;;;;;5107026;28;20513;-71
2021/01/16 13:17:46;;;;;;;18.42;11.45;;;;;;;;;;5105749;28;20033;-69
2021/01/16 13:20:12;;;;;;;13.45;9.38;;;;;;;;;;5107558;28;20066;-69
2021/01/16 13:22:46;;;;;;;13.18;9.05;;;;;;;;;;5107185;28;20110;-68
2021/01/16 13:25:16;;;;;;;12.88;9.23;;;;;;;;;;5106842;28;20524;-68
2021/01/16 13:27:42;;;;;;;14.25;9.38;;;;;;;;;;5107112;28;20039;-68
2021/01/16 13:30:09;;;;;;;13.93;8.43;;;;;;;;;;5105367;28;20063;-69
2021/01/16 13:32:36;;;;;;;11.10;8.63;;;;;;;;;;5105909;28;20645;-69
2021/01/16 13:35:06;;;;;;;11.77;8.70;;;;;;;;;;5106720;28;20078;-70
2021/01/16 13:37:32;;;;;;;11.07;8.40;;;;;;;;;;5106345;28;20071;-70
2021/01/16 13:40:00;;;;;;;11.07;7.13;;;;;;;;;;5104543;28;20046;-70
2021/01/16 13:42:29;;;;;;;19.05;13.48;;;;;;;;;;5105865;28;20043;-70
2021/01/16 13:44:57;;;;;;;8.75;6.93;;;;;;;;;;5106952;28;20028;-70
2021/01/16 13:47:24;;;;;;;8.32;5.00;;;;;;;;;;5106971;28;20054;-70
2021/01/16 13:49:50;;;;;;;7.75;5.72;;;;;;;;;;5106729;28;20024;-70
2021/01/16 13:52:15;;;;;;;7.22;5.20;;;;;;;;;;5106605;28;20032;-70
2021/01/16 13:54:42;;;;;;;9.70;6.60;;;;;;;;;;5106892;28;20042;-70
2021/01/16 13:57:22;;;;;;;8.98;5.38;;;;;;;;;;5106383;28;20090;-70
2021/01/16 13:59:55;;;;;;;12.32;5.60;;;;;;;;;;5106942;28;20024;-70
2021/01/16 14:02:25;;;;;;;16.33;10.80;;;;;;;;;;5105612;28;20059;-70
2021/01/16 14:04:51;;;;;;;18.90;10.55;;;;;;;;;;5106932;28;20062;-68
2021/01/16 14:07:35;;;;;;;8.35;5.03;;;;;;;;;;5104953;28;20059;-70
2021/01/16 14:10:00;;;;;;;7.15;4.75;;;;;;;;;;5105287;28;20066;-69
2021/01/16 14:12:25;;;;;;;8.38;5.38;;;;;;;;;;5106600;28;20413;-69
2021/01/16 14:14:54;;;;;;;8.05;5.47;;;;;;;;;;5106785;28;20031;-69
2021/01/16 14:17:24;;;;;;;7.55;4.95;;;;;;;;;;5106426;28;20035;-69
2021/01/16 14:20:06;;;;;;;9.80;5.65;;;;;;;;;;5109199;28;20633;-69
2021/01/16 14:22:51;;;;;;;8.30;5.50;;;;;;;;;;5110527;28;20032;-70
2021/01/16 14:25:23;;;;;;;8.45;5.35;;;;;;;;;;5110880;28;20131;-70
2021/01/16 14:27:49;;;;;;;8.15;5.47;;;;;;;;;;5108314;28;20106;-70
2021/01/16 14:30:20;;;;;;;8.10;5.57;;;;;;;;;;5110247;28;20111;-70
2021/01/16 14:32:59;;;;;;;9.85;6.43;;;;;;;;;;5109935;28;20031;-70
2021/01/16 14:35:25;;;;;;;9.73;6.18;;;;;;;;;;5107569;28;20443;-70
2021/01/16 14:37:58;;;;;;;10.18;5.95;;;;;;;;;;5110308;28;20049;-70
2021/01/16 14:40:34;;;;;;;9.57;6.63;;;;;;;;;;5109671;28;20539;-70
2021/01/16 14:43:06;;;;;;;10.75;6.53;;;;;;;;;;5106585;28;20035;-70
2021/01/16 14:45:34;;;;;;;10.15;6.20;;;;;;;;;;5108235;28;20040;-70
2021/01/16 14:48:11;;;;;;;9.18;5.85;;;;;;;;;;5110053;28;20023;-70